Time;durP1;ratioP1;P1;durP2;ratioP2;P2;SDS_P1;SDS_P2;PMS_P1;PMS_P2;Temp;Humidity;BMP_temperature;BMP_pressure;BME280_temperature;BME280_humidity;BME280_pressure;Samples;Min_cycle;Max_cycle;Signal;HPM_P1;HPM_P2
2021/04/13 00:02:45;;;;;;;4.07;3.30;;;;;;;;;;5048723;28;20256;-51
2021/04/13 00:05:43;;;;;;;3.10;2.80;;;;;;;;;;5049179;28;20201;-52
2021/04/13 00:08:17;;;;;;;3.77;3.03;;;;;;;;;;5044719;22;20273;-49
2021/04/13 00:10:56;;;;;;;4.70;3.50;;;;;;;;;;5021231;28;20278;-49
2021/04/13 00:13:23;;;;;;;3.57;3.23;;;;;;;;;;5016949;28;20313;-50
2021/04/13 00:15:51;;;;;;;4.10;3.40;;;;;;;;;;5020650;28;20195;-49
2021/04/13 00:18:24;;;;;;;4.40;3.40;;;;;;;;;;5018758;28;20199;-50
2021/04/13 00:20:57;;;;;;;4.93;3.23;;;;;;;;;;5014404;28;20201;-50
2021/04/13 00:23:24;;;;;;;4.00;3.20;;;;;;;;;;5015513;28;20203;-50
2021/04/13 00:26:21;;;;;;;4.87;3.50;;;;;;;;;;5015397;28;20198;-49
2021/04/13 00:28:48;;;;;;;6.13;3.70;;;;;;;;;;5012060;28;20238;-48
2021/04/13 00:31:42;;;;;;;5.03;3.77;;;;;;;;;;5012516;28;20280;-50
2021/04/13 00:34:12;;;;;;;6.53;3.70;;;;;;;;;;5012203;28;20203;-50
2021/04/13 00:36:38;;;;;;;3.83;3.43;;;;;;;;;;5019758;28;20568;-51
2021/04/13 00:39:23;;;;;;;5.37;4.13;;;;;;;;;;5015368;28;20194;-51
2021/04/13 00:41:53;;;;;;;5.50;3.57;;;;;;;;;;5016360;28;20186;-48
2021/04/13 00:44:19;;;;;;;5.73;3.77;;;;;;;;;;5017189;28;20206;-49
2021/04/13 00:46:57;;;;;;;6.93;4.27;;;;;;;;;;5015166;28;20206;-47
2021/04/13 00:49:26;;;;;;;6.10;4.27;;;;;;;;;;5023655;28;20190;-50
2021/04/13 00:51:54;;;;;;;7.43;4.40;;;;;;;;;;5019387;28;20769;-50
2021/04/13 00:54:30;;;;;;;5.50;4.00;;;;;;;;;;5026955;28;20714;-48
2021/04/13 00:56:59;;;;;;;5.07;4.33;;;;;;;;;;5017847;28;20562;-50
2021/04/13 00:59:25;;;;;;;5.67;4.40;;;;;;;;;;5022383;28;20191;-50
2021/04/13 01:02:04;;;;;;;5.40;4.30;;;;;;;;;;5026406;28;20186;-50
2021/04/13 01:04:35;;;;;;;5.83;4.70;;;;;;;;;;5024308;28;20754;-50
2021/04/13 01:07:28;;;;;;;5.53;4.70;;;;;;;;;;5024317;28;20207;-51
2021/04/13 01:10:06;;;;;;;7.73;4.43;;;;;;;;;;5022732;28;20260;-49
2021/04/13 01:12:34;;;;;;;6.73;4.70;;;;;;;;;;5023303;28;20215;-48
2021/04/13 01:15:00;;;;;;;7.27;5.20;;;;;;;;;;5026152;28;20202;-49
2021/04/13 01:17:29;;;;;;;6.10;4.67;;;;;;;;;;5027591;28;20257;-50
2021/04/13 01:19:54;;;;;;;6.37;4.67;;;;;;;;;;5027280;28;20262;-49
2021/04/13 01:25:15;;;;;;;7.27;4.57;;;;;;;;;;5021606;28;20666;-50
2021/04/13 01:27:47;;;;;;;8.33;4.73;;;;;;;;;;5023877;28;20217;-48
2021/04/13 01:30:14;;;;;;;6.80;5.17;;;;;;;;;;5023942;28;20309;-49
2021/04/13 01:32:40;;;;;;;6.93;5.00;;;;;;;;;;5027248;28;20257;-49
2021/04/13 01:35:12;;;;;;;6.97;5.10;;;;;;;;;;5025507;28;20623;-50
2021/04/13 01:38:05;;;;;;;5.30;4.40;;;;;;;;;;5023447;28;20206;-50
2021/04/13 01:43:24;;;;;;;7.93;4.80;;;;;;;;;;5026004;28;20198;-49
2021/04/13 01:45:50;;;;;;;8.20;5.17;;;;;;;;;;5026776;28;20205;-48
2021/04/13 01:48:17;;;;;;;6.40;5.10;;;;;;;;;;5025773;28;20218;-49
2021/04/13 01:50:45;;;;;;;6.30;4.90;;;;;;;;;;5025813;28;20226;-48
2021/04/13 01:53:14;;;;;;;6.00;4.33;;;;;;;;;;5026841;28;20226;-50
2021/04/13 01:55:52;;;;;;;8.07;5.53;;;;;;;;;;5025984;28;20313;-49
2021/04/13 01:58:24;;;;;;;6.77;5.37;;;;;;;;;;5024274;28;20206;-50
2021/04/13 02:00:59;;;;;;;6.40;5.17;;;;;;;;;;5022382;28;20198;-49
2021/04/13 02:03:46;;;;;;;9.70;6.10;;;;;;;;;;5021191;28;20213;-50
2021/04/13 02:06:24;;;;;;;7.87;5.13;;;;;;;;;;5024824;28;20198;-49
2021/04/13 02:08:53;;;;;;;7.80;6.27;;;;;;;;;;5017464;28;20285;-50
2021/04/13 02:11:24;;;;;;;10.67;6.00;;;;;;;;;;5024345;28;20354;-50
2021/04/13 02:13:57;;;;;;;8.07;5.63;;;;;;;;;;5025069;28;20658;-50
2021/04/13 02:16:47;;;;;;;10.67;6.50;;;;;;;;;;5038015;28;20287;-50
2021/04/13 02:19:12;;;;;;;9.07;5.50;;;;;;;;;;5023779;28;20256;-50
2021/04/13 02:21:42;;;;;;;7.83;5.80;;;;;;;;;;5023013;28;20207;-54
2021/04/13 02:24:12;;;;;;;8.03;4.90;;;;;;;;;;5024596;28;20247;-51
2021/04/13 02:26:45;;;;;;;10.27;6.87;;;;;;;;;;5021258;28;20190;-49
2021/04/13 02:29:12;;;;;;;4.77;3.50;;;;;;;;;;5024101;28;20725;-50
2021/04/13 02:31:47;;;;;;;7.80;5.63;;;;;;;;;;5025090;28;20237;-49
2021/04/13 02:34:20;;;;;;;7.87;4.70;;;;;;;;;;5025116;28;20355;-50
2021/04/13 02:36:52;;;;;;;10.07;5.93;;;;;;;;;;5025601;28;20220;-50
2021/04/13 02:39:20;;;;;;;8.63;5.77;;;;;;;;;;5024467;28;20222;-48
2021/04/13 02:42:01;;;;;;;9.10;5.53;;;;;;;;;;5021916;28;20231;-49
2021/04/13 02:44:27;;;;;;;7.57;6.00;;;;;;;;;;5024601;28;20569;-51
2021/04/13 02:46:56;;;;;;;9.30;6.07;;;;;;;;;;5022544;28;20212;-48
2021/04/13 02:49:24;;;;;;;9.20;5.83;;;;;;;;;;5025849;28;20268;-50
2021/04/13 02:52:00;;;;;;;8.70;6.67;;;;;;;;;;5023256;28;20812;-49
2021/04/13 02:54:30;;;;;;;10.77;6.07;;;;;;;;;;5024384;28;20206;-50
2021/04/13 02:57:04;;;;;;;9.37;6.00;;;;;;;;;;5023531;28;20206;-49
2021/04/13 02:59:32;;;;;;;8.30;5.77;;;;;;;;;;5023464;28;20186;-48
2021/04/13 03:02:06;;;;;;;10.17;5.83;;;;;;;;;;5023866;28;20179;-49
2021/04/13 03:04:43;;;;;;;8.40;5.03;;;;;;;;;;5016263;28;20290;-48
2021/04/13 03:07:16;;;;;;;7.50;5.40;;;;;;;;;;5024837;28;20213;-50
2021/04/13 03:09:43;;;;;;;9.13;6.13;;;;;;;;;;5017472;28;20219;-50
2021/04/13 03:12:09;;;;;;;9.80;5.90;;;;;;;;;;5024108;28;20257;-48
2021/04/13 03:14:40;;;;;;;8.37;5.57;;;;;;;;;;5023577;28;20197;-50
2021/04/13 03:17:13;;;;;;;7.00;5.40;;;;;;;;;;5023009;28;20230;-49
2021/04/13 03:19:40;;;;;;;8.17;5.43;;;;;;;;;;5024285;28;20190;-48
2021/04/13 03:22:07;;;;;;;11.10;5.97;;;;;;;;;;5023259;28;20182;-51
2021/04/13 03:24:40;;;;;;;11.13;6.57;;;;;;;;;;5023830;28;20273;-50
2021/04/13 03:27:14;;;;;;;9.70;6.27;;;;;;;;;;5023623;28;20210;-48
2021/04/13 03:29:46;;;;;;;10.57;6.03;;;;;;;;;;5015896;28;20209;-50
2021/04/13 03:32:13;;;;;;;8.80;6.27;;;;;;;;;;5022781;28;20301;-50
2021/04/13 03:34:42;;;;;;;10.13;5.33;;;;;;;;;;5022853;28;20310;-51
2021/04/13 03:37:09;;;;;;;10.13;6.17;;;;;;;;;;5023626;28;20199;-50
2021/04/13 03:39:41;;;;;;;9.83;6.57;;;;;;;;;;5023178;28;20190;-48
2021/04/13 03:42:14;;;;;;;9.93;6.23;;;;;;;;;;5015963;28;20559;-51
2021/04/13 03:44:40;;;;;;;10.20;6.37;;;;;;;;;;5023557;28;20191;-50
2021/04/13 03:47:14;;;;;;;8.43;5.93;;;;;;;;;;5024663;28;20236;-50
2021/04/13 03:49:42;;;;;;;8.10;5.40;;;;;;;;;;5023089;28;20202;-49
2021/04/13 03:52:19;;;;;;;9.17;4.93;;;;;;;;;;5022632;28;20221;-50
2021/04/13 03:54:45;;;;;;;9.53;5.43;;;;;;;;;;5022877;28;20210;-51
2021/04/13 03:57:10;;;;;;;11.00;5.90;;;;;;;;;;5022271;28;20226;-50
2021/04/13 03:59:43;;;;;;;12.77;6.43;;;;;;;;;;5023660;28;20559;-49
2021/04/13 04:02:09;;;;;;;8.57;5.77;;;;;;;;;;5023831;28;20209;-49
2021/04/13 04:04:41;;;;;;;8.27;6.33;;;;;;;;;;5022509;28;20198;-50
2021/04/13 04:07:22;;;;;;;8.07;5.70;;;;;;;;;;5021647;28;20246;-48
2021/04/13 04:09:47;;;;;;;7.43;5.43;;;;;;;;;;5016746;28;20245;-49
2021/04/13 04:12:19;;;;;;;8.93;6.40;;;;;;;;;;5027206;28;20202;-49
2021/04/13 04:14:58;;;;;;;8.73;6.13;;;;;;;;;;5026942;28;20199;-49
2021/04/13 04:17:27;;;;;;;10.30;6.30;;;;;;;;;;5026410;28;20651;-49
2021/04/13 04:20:09;;;;;;;11.30;5.63;;;;;;;;;;5027198;28;20693;-49
2021/04/13 04:22:49;;;;;;;7.93;5.83;;;;;;;;;;5025658;28;20597;-48
2021/04/13 04:25:20;;;;;;;9.70;6.40;;;;;;;;;;5026681;28;20191;-50
2021/04/13 04:27:47;;;;;;;10.77;6.30;;;;;;;;;;5027493;28;20268;-49
2021/04/13 04:30:27;;;;;;;10.57;6.57;;;;;;;;;;5028232;28;20236;-48
2021/04/13 04:32:54;;;;;;;10.03;5.57;;;;;;;;;;5027359;28;20217;-48
2021/04/13 04:35:43;;;;;;;6.97;5.40;;;;;;;;;;5026675;28;20206;-49
2021/04/13 04:38:14;;;;;;;9.63;6.40;;;;;;;;;;5026727;28;20213;-50
2021/04/13 04:40:48;;;;;;;8.77;6.30;;;;;;;;;;5025773;28;20197;-49
2021/04/13 04:43:15;;;;;;;9.27;6.37;;;;;;;;;;5025596;28;20183;-47
2021/04/13 04:45:43;;;;;;;13.57;7.10;;;;;;;;;;5023967;28;20195;-51
2021/04/13 04:48:21;;;;;;;10.40;5.70;;;;;;;;;;5028102;28;20191;-49
2021/04/13 04:50:47;;;;;;;10.37;6.93;;;;;;;;;;5026102;28;20202;-49
2021/04/13 04:53:14;;;;;;;7.63;5.73;;;;;;;;;;5025423;28;22047;-49
2021/04/13 04:55:39;;;;;;;11.33;6.43;;;;;;;;;;5027132;28;20666;-51
2021/04/13 04:58:05;;;;;;;10.60;6.30;;;;;;;;;;5025963;28;20214;-47
2021/04/13 05:00:30;;;;;;;11.47;6.10;;;;;;;;;;5024667;28;20560;-49
2021/04/13 05:02:55;;;;;;;10.70;6.57;;;;;;;;;;5027859;28;20193;-47
2021/04/13 05:05:20;;;;;;;7.57;5.67;;;;;;;;;;5026069;28;20722;-50
2021/04/13 05:07:46;;;;;;;8.43;5.67;;;;;;;;;;5025560;28;20738;-51
2021/04/13 05:10:12;;;;;;;9.70;6.67;;;;;;;;;;5024549;28;20252;-49
2021/04/13 05:12:37;;;;;;;7.10;4.30;;;;;;;;;;5026063;28;20241;-49
2021/04/13 05:15:03;;;;;;;7.70;5.80;;;;;;;;;;5021068;28;20222;-50
2021/04/13 05:17:28;;;;;;;8.70;5.83;;;;;;;;;;5027013;28;20293;-50
2021/04/13 05:19:53;;;;;;;9.50;6.30;;;;;;;;;;5024927;28;20205;-48
2021/04/13 05:22:19;;;;;;;9.33;6.40;;;;;;;;;;5025936;28;20560;-51
2021/04/13 05:24:44;;;;;;;10.10;6.97;;;;;;;;;;5024369;28;20199;-50
2021/04/13 05:27:09;;;;;;;7.43;5.53;;;;;;;;;;5025561;28;20207;-49
2021/04/13 05:29:34;;;;;;;9.83;5.80;;;;;;;;;;5026490;28;20206;-50
2021/04/13 05:32:00;;;;;;;11.67;5.63;;;;;;;;;;5024241;28;20206;-51
2021/04/13 05:34:25;;;;;;;9.90;6.17;;;;;;;;;;5025929;28;20213;-49
2021/04/13 05:36:53;;;;;;;7.47;5.23;;;;;;;;;;5024940;28;20202;-49
2021/04/13 05:39:20;;;;;;;9.83;5.40;;;;;;;;;;5023829;28;20195;-51
2021/04/13 05:41:45;;;;;;;10.73;5.97;;;;;;;;;;5025612;28;20252;-50
2021/04/13 05:44:10;;;;;;;9.33;6.00;;;;;;;;;;5026579;28;20666;-51
2021/04/13 05:46:37;;;;;;;11.77;6.50;;;;;;;;;;5023044;28;20201;-50
2021/04/13 05:49:03;;;;;;;12.13;5.60;;;;;;;;;;5025571;28;20191;-50
2021/04/13 05:51:29;;;;;;;11.37;6.33;;;;;;;;;;5024774;28;20712;-50
2021/04/13 05:53:54;;;;;;;10.47;6.20;;;;;;;;;;5025344;28;20193;-50
2021/04/13 05:56:27;;;;;;;9.00;5.93;;;;;;;;;;5024443;28;20772;-50
2021/04/13 05:58:52;;;;;;;10.00;5.90;;;;;;;;;;5025109;28;20709;-50
2021/04/13 06:01:20;;;;;;;10.13;6.03;;;;;;;;;;5023439;28;20199;-51
2021/04/13 06:03:46;;;;;;;8.43;5.13;;;;;;;;;;5025318;28;20202;-50
2021/04/13 06:06:13;;;;;;;9.07;5.57;;;;;;;;;;5024564;28;20224;-48
2021/04/13 06:08:39;;;;;;;9.83;5.43;;;;;;;;;;5034055;22;20253;-77
2021/04/13 06:11:04;;;;;;;7.57;4.83;;;;;;;;;;5016458;28;20305;-76
2021/04/13 06:13:29;;;;;;;7.90;6.03;;;;;;;;;;5018984;28;20344;-75
2021/04/13 06:15:55;;;;;;;8.90;5.70;;;;;;;;;;5020448;28;20198;-76
2021/04/13 06:18:22;;;;;;;10.60;6.20;;;;;;;;;;5017004;28;20199;-74
2021/04/13 06:20:47;;;;;;;8.47;5.80;;;;;;;;;;5024422;28;20202;-75
2021/04/13 06:23:12;;;;;;;9.57;5.50;;;;;;;;;;5025739;28;20573;-73
2021/04/13 06:25:38;;;;;;;12.40;5.37;;;;;;;;;;5020911;28;20256;-73
2021/04/13 06:28:03;;;;;;;8.63;5.23;;;;;;;;;;5021362;28;20329;-74
2021/04/13 06:30:29;;;;;;;9.63;5.23;;;;;;;;;;5023060;28;20215;-74
2021/04/13 06:32:57;;;;;;;6.50;5.10;;;;;;;;;;4993602;28;20305;-75
2021/04/13 06:35:22;;;;;;;11.10;5.90;;;;;;;;;;5019285;28;20295;-74
2021/04/13 06:37:49;;;;;;;10.40;5.27;;;;;;;;;;5021358;28;20226;-74
2021/04/13 06:40:52;;;;;;;29.17;22.90;;;;;;;;;;5020136;28;20574;-74
2021/04/13 06:43:33;;;;;;;6.90;5.20;;;;;;;;;;5000434;28;20565;-76
2021/04/13 06:46:24;;;;;;;8.33;5.63;;;;;;;;;;5021202;28;20281;-76
2021/04/13 06:49:15;;;;;;;12.63;5.40;;;;;;;;;;5012112;28;20693;-74
2021/04/13 06:51:59;;;;;;;8.30;5.03;;;;;;;;;;5003436;28;20214;-76
2021/04/13 06:54:40;;;;;;;10.40;5.80;;;;;;;;;;5020071;28;20692;-75
2021/04/13 06:57:31;;;;;;;10.70;5.20;;;;;;;;;;5017582;28;20225;-74
2021/04/13 07:00:05;;;;;;;7.63;4.67;;;;;;;;;;5019154;28;20301;-74
2021/04/13 07:02:58;;;;;;;10.63;4.57;;;;;;;;;;5003514;28;20305;-74
2021/04/13 07:05:33;;;;;;;7.87;4.50;;;;;;;;;;5018894;28;20209;-76
2021/04/13 07:08:28;;;;;;;7.67;5.10;;;;;;;;;;5005765;28;20202;-76
2021/04/13 07:11:02;;;;;;;7.53;4.37;;;;;;;;;;5018760;28;20211;-75
2021/04/13 07:13:54;;;;;;;12.03;5.40;;;;;;;;;;5018022;28;20698;-78
2021/04/13 07:16:32;;;;;;;7.67;4.93;;;;;;;;;;5023323;28;20281;-74
2021/04/13 07:19:10;;;;;;;11.97;5.37;;;;;;;;;;5017285;28;20301;-76
2021/04/13 07:21:42;;;;;;;9.80;4.60;;;;;;;;;;5020048;28;20190;-75
2021/04/13 07:24:39;;;;;;;8.00;3.90;;;;;;;;;;5019876;28;20684;-74
2021/04/13 07:27:13;;;;;;;12.80;4.30;;;;;;;;;;5019868;28;20202;-76
2021/04/13 07:29:59;;;;;;;7.97;3.97;;;;;;;;;;5018700;28;20698;-77
2021/04/13 07:32:25;;;;;;;8.60;4.27;;;;;;;;;;5018734;28;20215;-75
2021/04/13 07:34:58;;;;;;;11.93;4.27;;;;;;;;;;4998813;28;20330;-76
2021/04/13 07:37:38;;;;;;;7.30;4.00;;;;;;;;;;5020371;28;20683;-74
2021/04/13 07:40:09;;;;;;;11.83;4.20;;;;;;;;;;5024208;28;20568;-76
2021/04/13 07:42:36;;;;;;;6.33;4.03;;;;;;;;;;5013770;28;20271;-74
2021/04/13 07:45:29;;;;;;;8.13;3.33;;;;;;;;;;5018434;28;20203;-75
2021/04/13 07:48:03;;;;;;;8.37;3.90;;;;;;;;;;5021225;28;20190;-74
2021/04/13 07:50:51;;;;;;;9.70;3.40;;;;;;;;;;5027568;28;20209;-75
2021/04/13 07:53:43;;;;;;;7.63;3.20;;;;;;;;;;5021443;28;20257;-74
2021/04/13 07:56:25;;;;;;;8.63;3.67;;;;;;;;;;5025286;28;20214;-74
2021/04/13 07:59:01;;;;;;;10.87;3.57;;;;;;;;;;5022719;28;20218;-74
2021/04/13 08:01:26;;;;;;;9.63;3.97;;;;;;;;;;5026373;28;20788;-76
2021/04/13 08:03:51;;;;;;;10.50;3.70;;;;;;;;;;5009060;28;20203;-74
2021/04/13 08:06:26;;;;;;;6.20;3.20;;;;;;;;;;5025886;28;20592;-75
2021/04/13 08:09:20;;;;;;;7.37;3.67;;;;;;;;;;5025742;28;20217;-74
2021/04/13 08:12:09;;;;;;;11.67;3.57;;;;;;;;;;5023631;28;20256;-75
2021/04/13 08:14:41;;;;;;;12.80;4.07;;;;;;;;;;5024411;28;20317;-75
2021/04/13 08:17:54;;;;;;;8.83;3.13;;;;;;;;;;5020104;28;20282;-74
2021/04/13 08:20:29;;;;;;;9.10;3.10;;;;;;;;;;4986537;28;20252;-75
2021/04/13 08:23:06;;;;;;;6.03;3.40;;;;;;;;;;5007658;28;20727;-76
2021/04/13 08:25:43;;;;;;;10.30;2.70;;;;;;;;;;5028442;28;20197;-74
2021/04/13 08:28:31;;;;;;;5.83;2.90;;;;;;;;;;5029549;28;20252;-76
2021/04/13 08:34:22;;;;;;;5.57;1.97;;;;;;;;;;5021214;28;20218;-74
2021/04/13 08:36:58;;;;;;;8.43;2.20;;;;;;;;;;5027043;28;20241;-74
2021/04/13 08:39:36;;;;;;;8.50;2.60;;;;;;;;;;5027610;28;20210;-76
2021/04/13 08:42:05;;;;;;;8.10;2.73;;;;;;;;;;5018264;28;20638;-76
2021/04/13 08:44:35;;;;;;;7.13;2.53;;;;;;;;;;5018486;28;20227;-76
2021/04/13 08:47:28;;;;;;;9.10;2.80;;;;;;;;;;5021291;28;20227;-75
2021/04/13 08:50:00;;;;;;;9.90;2.83;;;;;;;;;;5016018;28;20234;-76
2021/04/13 08:52:44;;;;;;;5.27;2.30;;;;;;;;;;5026162;28;20303;-76
2021/04/13 08:55:13;;;;;;;8.43;2.30;;;;;;;;;;5021093;28;20187;-76
2021/04/13 08:57:46;;;;;;;7.50;2.40;;;;;;;;;;5022168;28;20261;-76
2021/04/13 09:00:20;;;;;;;7.93;2.47;;;;;;;;;;5022328;28;20214;-76
2021/04/13 09:02:56;;;;;;;8.13;2.40;;;;;;;;;;5026168;28;20289;-76
2021/04/13 09:05:28;;;;;;;5.83;2.33;;;;;;;;;;5022130;28;20273;-76
2021/04/13 09:08:02;;;;;;;5.93;2.20;;;;;;;;;;5023886;28;20723;-77
2021/04/13 09:11:01;;;;;;;5.80;2.50;;;;;;;;;;5028604;28;20208;-75
2021/04/13 09:13:34;;;;;;;5.70;2.37;;;;;;;;;;5023336;28;20597;-76
2021/04/13 09:16:16;;;;;;;5.20;2.00;;;;;;;;;;5004709;28;20191;-75
2021/04/13 09:18:44;;;;;;;4.90;1.80;;;;;;;;;;5026262;28;20878;-75
2021/04/13 09:21:28;;;;;;;7.53;2.47;;;;;;;;;;5025365;28;20241;-75
2021/04/13 09:24:05;;;;;;;7.93;2.37;;;;;;;;;;5018180;28;20214;-75
2021/04/13 09:26:45;;;;;;;8.27;2.30;;;;;;;;;;5023679;28;20321;-76
2021/04/13 09:29:29;;;;;;;8.80;2.50;;;;;;;;;;5021418;28;20777;-76
2021/04/13 09:31:54;;;;;;;6.90;2.30;;;;;;;;;;5024299;28;20209;-76
2021/04/13 09:34:47;;;;;;;6.20;2.20;;;;;;;;;;5019792;28;20560;-76
2021/04/13 09:37:35;;;;;;;6.17;2.57;;;;;;;;;;5021369;28;20266;-77
2021/04/13 09:40:38;;;;;;;6.53;2.93;;;;;;;;;;5022483;28;20285;-75
2021/04/13 09:43:11;;;;;;;8.27;2.37;;;;;;;;;;5023768;28;20194;-75
2021/04/13 09:46:00;;;;;;;7.33;1.93;;;;;;;;;;5016288;28;20202;-76
2021/04/13 09:48:37;;;;;;;7.90;2.17;;;;;;;;;;5013725;28;20278;-75
2021/04/13 09:51:15;;;;;;;5.63;2.20;;;;;;;;;;5025727;28;20679;-76
2021/04/13 09:54:08;;;;;;;6.33;2.30;;;;;;;;;;5019855;28;20182;-74
2021/04/13 09:56:55;;;;;;;8.00;2.17;;;;;;;;;;5022053;28;20697;-74
2021/04/13 09:59:45;;;;;;;6.23;2.20;;;;;;;;;;5020078;28;20195;-74
2021/04/13 10:02:45;;;;;;;6.93;2.10;;;;;;;;;;5020753;28;20178;-76
2021/04/13 10:05:14;;;;;;;7.10;2.00;;;;;;;;;;5022733;28;20194;-74
2021/04/13 10:07:58;;;;;;;7.10;2.50;;;;;;;;;;5019080;28;20199;-74
2021/04/13 10:10:23;;;;;;;7.07;2.30;;;;;;;;;;5017862;28;20249;-76
2021/04/13 10:13:04;;;;;;;6.40;2.27;;;;;;;;;;5016131;28;20202;-77
2021/04/13 10:15:33;;;;;;;4.90;2.20;;;;;;;;;;5020869;28;20210;-74
2021/04/13 10:18:26;;;;;;;5.60;2.37;;;;;;;;;;5018245;28;20191;-76
2021/04/13 10:21:22;;;;;;;3.90;1.80;;;;;;;;;;5023523;28;20202;-76
2021/04/13 10:24:27;;;;;;;4.80;1.97;;;;;;;;;;5022230;28;20188;-77
2021/04/13 10:27:14;;;;;;;4.70;1.73;;;;;;;;;;5019031;28;20220;-76
2021/04/13 10:30:10;;;;;;;4.80;2.03;;;;;;;;;;5022855;28;20207;-76
2021/04/13 10:33:01;;;;;;;4.90;1.70;;;;;;;;;;5016195;28;20256;-76
2021/04/13 10:35:43;;;;;;;5.10;1.90;;;;;;;;;;5020074;28;20797;-74
2021/04/13 10:38:31;;;;;;;4.47;1.33;;;;;;;;;;5021744;28;20201;-76
2021/04/13 10:41:19;;;;;;;6.80;1.83;;;;;;;;;;5019702;28;20210;-75
2021/04/13 10:44:21;;;;;;;6.43;1.70;;;;;;;;;;5019956;28;20190;-76
2021/04/13 10:47:12;;;;;;;5.37;1.70;;;;;;;;;;5021007;28;20260;-75
2021/04/13 10:50:16;;;;;;;4.53;1.57;;;;;;;;;;5006034;28;20210;-77
2021/04/13 10:53:07;;;;;;;6.87;1.80;;;;;;;;;;5020337;28;20309;-77
2021/04/13 10:55:54;;;;;;;6.20;1.90;;;;;;;;;;5023713;28;20198;-77
2021/04/13 10:58:57;;;;;;;11.33;2.40;;;;;;;;;;5023844;28;20195;-76
2021/04/13 11:01:37;;;;;;;3.90;1.53;;;;;;;;;;5023563;28;20248;-76
2021/04/13 11:04:33;;;;;;;5.47;1.80;;;;;;;;;;5019612;28;20285;-74
2021/04/13 11:07:24;;;;;;;6.33;1.70;;;;;;;;;;5016983;28;20245;-77
2021/04/13 11:09:49;;;;;;;7.37;2.00;;;;;;;;;;5021900;28;20214;-76
2021/04/13 11:12:33;;;;;;;5.17;1.60;;;;;;;;;;5002965;28;20242;-77
2021/04/13 11:15:38;;;;;;;6.23;1.90;;;;;;;;;;5018128;28;20733;-75
2021/04/13 11:18:21;;;;;;;6.63;1.77;;;;;;;;;;4976216;28;20709;-76
2021/04/13 11:20:57;;;;;;;4.47;1.50;;;;;;;;;;5021884;28;20194;-74
2021/04/13 11:23:36;;;;;;;5.10;2.10;;;;;;;;;;5031829;28;20545;-74
2021/04/13 11:26:33;;;;;;;6.10;1.80;;;;;;;;;;5021203;28;20260;-75
2021/04/13 11:29:30;;;;;;;6.77;1.97;;;;;;;;;;5022128;28;20738;-76
2021/04/13 11:32:23;;;;;;;6.43;1.90;;;;;;;;;;5022856;28;20833;-76
2021/04/13 11:35:29;;;;;;;7.13;2.07;;;;;;;;;;5028122;28;20667;-75
2021/04/13 11:38:26;;;;;;;6.83;1.67;;;;;;;;;;5024184;28;20171;-76
2021/04/13 11:41:10;;;;;;;3.60;1.60;;;;;;;;;;5014104;28;20864;-77
2021/04/13 11:43:48;;;;;;;6.37;1.93;;;;;;;;;;5019811;28;20187;-77
2021/04/13 11:46:27;;;;;;;5.70;1.40;;;;;;;;;;5019735;28;20276;-76
2021/04/13 11:49:08;;;;;;;3.07;1.50;;;;;;;;;;5025301;28;20206;-77
2021/04/13 11:51:46;;;;;;;4.13;1.80;;;;;;;;;;5021621;28;20195;-75
2021/04/13 11:54:52;;;;;;;6.93;1.63;;;;;;;;;;5023167;28;20285;-75
2021/04/13 11:57:22;;;;;;;5.47;1.40;;;;;;;;;;5021362;28;20857;-75
2021/04/13 12:00:21;;;;;;;5.47;1.77;;;;;;;;;;5025236;28;20305;-77
2021/04/13 12:03:00;;;;;;;6.77;1.40;;;;;;;;;;5024883;28;20657;-77
2021/04/13 12:05:28;;;;;;;6.77;1.80;;;;;;;;;;5025117;28;20198;-77
2021/04/13 12:07:54;;;;;;;3.80;1.60;;;;;;;;;;5020179;28;20190;-76
2021/04/13 12:10:32;;;;;;;6.83;2.20;;;;;;;;;;5020851;28;20209;-77
2021/04/13 12:12:59;;;;;;;5.23;2.07;;;;;;;;;;5024219;28;20737;-76
2021/04/13 12:15:25;;;;;;;4.17;1.60;;;;;;;;;;5031187;28;20190;-76
2021/04/13 12:17:52;;;;;;;6.13;1.80;;;;;;;;;;5025359;28;20190;-75
2021/04/13 12:20:26;;;;;;;4.63;1.70;;;;;;;;;;5017471;28;20207;-77
2021/04/13 12:22:52;;;;;;;5.03;1.93;;;;;;;;;;5029072;28;20370;-76
2021/04/13 12:25:36;;;;;;;7.33;1.80;;;;;;;;;;5022757;28;20195;-77
2021/04/13 12:28:18;;;;;;;5.73;1.80;;;;;;;;;;5022618;28;20195;-79
2021/04/13 12:30:43;;;;;;;3.73;1.27;;;;;;;;;;5034661;28;20195;-81
2021/04/13 12:33:10;;;;;;;3.63;1.30;;;;;;;;;;5027406;28;20214;-80
2021/04/13 12:35:54;;;;;;;1.93;0.90;;;;;;;;;;5029650;28;20184;-78
2021/04/13 12:38:49;;;;;;;4.30;1.40;;;;;;;;;;5029278;28;20724;-76
2021/04/13 12:41:25;;;;;;;3.40;1.00;;;;;;;;;;5027315;28;20187;-74
2021/04/13 12:43:57;;;;;;;3.30;1.20;;;;;;;;;;5022910;28;20289;-77
2021/04/13 12:46:31;;;;;;;2.40;1.00;;;;;;;;;;5017396;28;20612;-78
2021/04/13 12:49:10;;;;;;;3.00;0.83;;;;;;;;;;5023169;28;20214;-76
2021/04/13 12:51:50;;;;;;;2.67;1.00;;;;;;;;;;5018560;28;20277;-74
2021/04/13 12:54:32;;;;;;;3.97;1.20;;;;;;;;;;5026418;28;20622;-74
2021/04/13 12:57:05;;;;;;;2.70;1.20;;;;;;;;;;5024669;28;20196;-75
2021/04/13 12:59:33;;;;;;;2.93;1.40;;;;;;;;;;5020083;28;20210;-75
2021/04/13 13:01:59;;;;;;;3.53;1.40;;;;;;;;;;5024634;28;20201;-74
2021/04/13 13:04:36;;;;;;;4.80;1.40;;;;;;;;;;5021627;28;20191;-78
2021/04/13 13:07:04;;;;;;;3.00;0.90;;;;;;;;;;5022429;28;20206;-78
2021/04/13 13:09:33;;;;;;;3.17;1.10;;;;;;;;;;5017928;28;20214;-78
2021/04/13 13:12:13;;;;;;;3.37;1.30;;;;;;;;;;5017727;28;20233;-77
2021/04/13 13:14:41;;;;;;;2.23;1.10;;;;;;;;;;5021946;28;20191;-75
2021/04/13 13:17:08;;;;;;;6.47;1.30;;;;;;;;;;5022698;28;20202;-76
2021/04/13 13:19:45;;;;;;;3.67;1.17;;;;;;;;;;5023728;28;20232;-74
2021/04/13 13:22:21;;;;;;;4.03;1.43;;;;;;;;;;5020745;28;20202;-76
2021/04/13 13:24:50;;;;;;;6.47;1.53;;;;;;;;;;5019394;28;20689;-75
2021/04/13 13:27:20;;;;;;;4.77;1.53;;;;;;;;;;5022174;28;20198;-76
2021/04/13 13:29:46;;;;;;;5.43;1.60;;;;;;;;;;5025172;28;20218;-77
2021/04/13 13:32:15;;;;;;;2.47;1.23;;;;;;;;;;5015762;28;20225;-76
2021/04/13 13:34:40;;;;;;;2.50;1.30;;;;;;;;;;5020221;28;20199;-75
2021/04/13 13:37:09;;;;;;;3.40;1.40;;;;;;;;;;5017607;28;20658;-76
2021/04/13 13:39:34;;;;;;;4.63;1.60;;;;;;;;;;5009254;28;20214;-75
2021/04/13 13:42:05;;;;;;;6.23;1.40;;;;;;;;;;4996959;28;20201;-77
2021/04/13 13:44:43;;;;;;;3.40;1.17;;;;;;;;;;5003319;28;20528;-76
2021/04/13 13:47:29;;;;;;;3.60;1.63;;;;;;;;;;5022533;28;20218;-74
2021/04/13 13:50:20;;;;;;;3.60;1.40;;;;;;;;;;5023523;28;20220;-75
2021/04/13 13:52:50;;;;;;;3.77;1.40;;;;;;;;;;5007829;28;20249;-76
2021/04/13 13:55:36;;;;;;;2.70;1.30;;;;;;;;;;5022946;28;20647;-75
2021/04/13 13:58:18;;;;;;;2.47;1.37;;;;;;;;;;5017833;28;20239;-75
2021/04/13 14:00:56;;;;;;;2.93;1.50;;;;;;;;;;5023284;28;20284;-76
2021/04/13 14:03:26;;;;;;;5.67;2.10;;;;;;;;;;5004483;28;21066;-76
2021/04/13 14:06:10;;;;;;;3.23;1.60;;;;;;;;;;5023243;28;20850;-74
2021/04/13 14:08:40;;;;;;;3.10;1.43;;;;;;;;;;5026809;28;20737;-75
2021/04/13 14:11:20;;;;;;;6.00;1.53;;;;;;;;;;5015325;28;20202;-75
2021/04/13 14:14:09;;;;;;;5.17;1.90;;;;;;;;;;5022326;28;20205;-75
2021/04/13 14:16:45;;;;;;;4.90;1.47;;;;;;;;;;5017007;28;20194;-77
2021/04/13 14:19:33;;;;;;;6.07;1.57;;;;;;;;;;5020349;28;20236;-75
2021/04/13 14:22:19;;;;;;;2.83;1.40;;;;;;;;;;5015345;28;20244;-77
2021/04/13 14:24:51;;;;;;;5.57;2.03;;;;;;;;;;5020148;28;20655;-74
2021/04/13 14:27:24;;;;;;;3.80;1.80;;;;;;;;;;5022285;28;20187;-76
2021/04/13 14:29:49;;;;;;;1.93;1.43;;;;;;;;;;5015232;28;20217;-77
2021/04/13 14:32:15;;;;;;;3.80;1.40;;;;;;;;;;5023024;28;20207;-77
2021/04/13 14:34:40;;;;;;;3.13;1.80;;;;;;;;;;5017925;28;20222;-77
2021/04/13 14:37:11;;;;;;;3.30;1.60;;;;;;;;;;5027037;28;20614;-76
2021/04/13 14:39:43;;;;;;;5.13;2.27;;;;;;;;;;5018964;28;20214;-76
2021/04/13 14:42:09;;;;;;;4.73;1.97;;;;;;;;;;5002746;28;20179;-77
2021/04/13 14:44:35;;;;;;;4.30;2.17;;;;;;;;;;5026329;28;20194;-77
2021/04/13 14:47:03;;;;;;;2.40;1.00;;;;;;;;;;5017061;28;20261;-76
2021/04/13 14:49:28;;;;;;;6.70;1.50;;;;;;;;;;5016558;28;20469;-75
2021/04/13 14:51:54;;;;;;;2.97;1.30;;;;;;;;;;5017069;28;20599;-77
2021/04/13 14:54:19;;;;;;;1.90;1.00;;;;;;;;;;5016909;28;20565;-76
2021/04/13 14:56:45;;;;;;;3.10;1.07;;;;;;;;;;5011934;28;20195;-77
2021/04/13 14:59:11;;;;;;;3.70;1.20;;;;;;;;;;5027647;28;20210;-76
2021/04/13 15:01:36;;;;;;;4.50;1.40;;;;;;;;;;5015039;28;20579;-80
2021/04/13 15:04:01;;;;;;;3.13;1.20;;;;;;;;;;5016777;28;20199;-80
2021/04/13 15:06:28;;;;;;;4.10;1.33;;;;;;;;;;5028351;28;20291;-80
2021/04/13 15:08:57;;;;;;;3.03;1.40;;;;;;;;;;5019886;28;20254;-80
2021/04/13 15:11:22;;;;;;;3.00;1.40;;;;;;;;;;5030621;28;20199;-78
2021/04/13 15:13:48;;;;;;;3.23;1.00;;;;;;;;;;5029657;28;20248;-78
2021/04/13 15:16:15;;;;;;;3.80;1.20;;;;;;;;;;5027520;28;20246;-76
2021/04/13 15:18:41;;;;;;;2.83;1.00;;;;;;;;;;5011825;28;20210;-80
2021/04/13 15:21:07;;;;;;;2.40;1.00;;;;;;;;;;5019630;28;20221;-78
2021/04/13 15:23:33;;;;;;;2.67;1.30;;;;;;;;;;5024799;28;20203;-76
2021/04/13 15:26:00;;;;;;;2.67;1.00;;;;;;;;;;5018711;28;20189;-77
2021/04/13 15:28:26;;;;;;;2.10;0.90;;;;;;;;;;5016086;28;20186;-78
2021/04/13 15:30:51;;;;;;;2.70;1.00;;;;;;;;;;5026778;28;20566;-78
2021/04/13 15:33:20;;;;;;;3.07;1.33;;;;;;;;;;5014875;28;20203;-78
2021/04/13 15:35:54;;;;;;;1.20;0.80;;;;;;;;;;5021840;28;20333;-77
2021/04/13 15:38:22;;;;;;;3.80;1.33;;;;;;;;;;5020556;28;20197;-77